TFM - Tactical Decision Aid (Experimental) INFO Settings
ID: Runway Winds: CIG/VIS Threshold: METAR Board: Map:

KCLT - Charlotte-Douglas Intl

Updated at: 2023 UTC 29 Sep 2016
Latest TAF at: 1814 UTC 29 Sep 2016

TAF Board

Time1952Z29/21Z29/22Z29/23Z30/00Z30/01Z30/02Z30/03Z30/04Z30/05Z30/06Z30/07Z30/08Z30/09Z
TypeOBSPRVLPRVLPRVLPRVLPRVLPRVLPRVLPRVLPRVLPRVLPRVLPRVLPRVL
VIS10>6>6>6>6>6>6>6>6>6>6>6>6>6
CIG----------------------------
CoverSCTFEWFEWFEWFEWFEWFEWSCTSCTSCTSCTSCTSCTSCT
FltCatVFRVFRVFRVFRVFRVFRVFRVFRVFRVFRVFRVFRVFRVFR
WX--VCSHVCSHVCSHVCSHVCSHVCSH--------------
WDir100130130130130130130160160160160160160160
WSpd126666664444444
WGst----------------------------
TAF
KCLT 291814Z 2918/3018 11009KT P6SM BKN060
  FM291900 13006KT P6SM VCSH FEW050
  FM300300 16004KT P6SM SCT250
  FM301300 18005KT P6SM SCT250


METAR
KCLT 291952Z 10012KT 10SM FEW029 SCT110 SCT250 27/19 A2993 RMK AO2 SLP127 TCU DSNT S-W-N T02720194

TAF/METAR Board Legend

Potential Impact
  None Marginal Slight Moderate High
Visibility (sm) >5 3≤X≤5 1≤X<3 0.5≤X<1 <0.5
Ceiling (100 ft) >30 10≤X≤30 4≤X<10 2≤X<4 <2
Wind Speed (kt) <10 10≤X<20 20≤X<30 ≥30
Wind Gust (kt) <15 15≤X<25 25≤X<35 ≥35
Weather No Wx Reported VCTS -TS,-FZRA TS,FZRA +TS,+FZRA